Last 24 Hours

UH Manoa Atmospheric Sciences

15 Minute Data | Pacific/Honolulu
as of 4/11/21 7:54 AM HST
Station Date Time Temp (°F) RH (%) Dew Pt (°F) Wind Spd (mph) Wind Dir (°) Wind Gust (mph) Latest Rain (In) Solar Rad (W/m2) Heat Index (°F) Barometric Pressure (inHg) Daily Rain (In) Daily Min Temp (°F) Daily Max Temp (°F) Daily Max Wind (mph)
UH Manoa Atmospheric Sciences 4/11/21 0745 69.4 75 61.2 1.3 WNW | 303 4.6 0.00 123 69.4 29.99 0.00 66.1 70.0 6.3
UH Manoa Atmospheric Sciences 4/11/21 0730 68.1 78 60.9 2.2 WNW | 284 6.3 0.00 193 68.1 29.99 0.00 66.1 70.0 6.3
UH Manoa Atmospheric Sciences 4/11/21 0715 67.4 78 60.6 1.0 SSW | 212 2.7 0.00 91 67.4 29.98 0.00 66.1 70.0 4.8
UH Manoa Atmospheric Sciences 4/11/21 0700 67.0 79 60.2 0.6 S | 169 2.5 0.00 57 67.0 29.98 0.00 66.1 70.0 4.8
UH Manoa Atmospheric Sciences 4/11/21 0645 66.8 78 59.9 0.2 ENE | 62 1.9 0.00 25 66.8 29.98 0.00 66.1 70.0 4.8
UH Manoa Atmospheric Sciences 4/11/21 0630 66.9 78 59.8 1.2 NE | 52 4.7 0.00 4 66.9 29.98 0.00 66.1 70.0 4.8
UH Manoa Atmospheric Sciences 4/11/21 0615 66.7 78 59.5 0.6 ENE | 60 3.5 0.00 0 66.7 29.98 0.00 66.1 70.0 4.8
UH Manoa Atmospheric Sciences 4/11/21 0600 66.8 77 59.4 0.9 NE | 35 2.5 0.00 0 66.8 29.97 0.00 66.1 70.0 4.8
UH Manoa Atmospheric Sciences 4/11/21 0545 66.7 77 59.3 1.1 NE | 54 4.5 0.00 0 66.7 29.97 0.00 66.1 70.0 4.8
UH Manoa Atmospheric Sciences 4/11/21 0530 66.9 77 59.3 1.0 NNE | 16 3.7 0.00 0 66.9 29.97 0.00 66.1 70.0 4.8
UH Manoa Atmospheric Sciences 4/11/21 0515 66.7 77 59.2 0.4 E | 98 1.6 0.00 0 66.7 29.97 0.00 66.1 70.0 4.8
UH Manoa Atmospheric Sciences 4/11/21 0500 66.4 77 59.1 0.5 E | 93 2.2 0.00 0 66.4 29.96 0.00 66.1 70.0 4.8
UH Manoa Atmospheric Sciences 4/11/21 0445 66.6 77 59.2 0.1 NNW | 348 1.6 0.00 0 66.6 29.96 0.00 66.1 70.0 4.8
UH Manoa Atmospheric Sciences 4/11/21 0430 66.4 77 59.1 0.6 NW | 313 2.9 0.00 0 66.4 29.96 0.00 66.1 70.0 4.8
UH Manoa Atmospheric Sciences 4/11/21 0415 66.4 77 59.1 0.4 W | 262 2.2 0.00 0 66.4 29.96 0.00 66.1 70.0 4.8
UH Manoa Atmospheric Sciences 4/11/21 0400 66.3 77 59.0 0.2 N | 360 1.6 0.00 0 66.3 29.96 0.00 66.1 70.0 4.8
UH Manoa Atmospheric Sciences 4/11/21 0345 66.3 77 58.9 0.2 N | 10 1.9 0.00 0 66.3 29.96 0.00 66.1 70.0 4.8
UH Manoa Atmospheric Sciences 4/11/21 0330 66.3 77 58.7 0.1 NE | 43 1.3 0.00 0 66.3 29.97 0.00 66.1 70.0 4.8
UH Manoa Atmospheric Sciences 4/11/21 0315 66.6 76 58.8 0.8 NE | 41 3.1 0.00 0 66.6 29.97 0.00 66.5 70.0 4.8
UH Manoa Atmospheric Sciences 4/11/21 0300 67.0 75 59.0 0.7 NE | 44 2.5 0.00 0 67.0 29.97 0.00 66.7 70.0 4.8
UH Manoa Atmospheric Sciences 4/11/21 0245 67.1 75 59.0 0.6 NE | 34 2.3 0.00 0 67.1 29.98 0.00 66.9 70.0 4.8
UH Manoa Atmospheric Sciences 4/11/21 0230 67.2 74 58.8 0.5 ENE | 59 2.4 0.00 0 67.2 29.99 0.00 67.1 70.0 4.8
UH Manoa Atmospheric Sciences 4/11/21 0215 67.5 73 58.7 0.6 NE | 41 2.4 0.00 0 67.5 29.99 0.00 67.2 70.0 4.8
UH Manoa Atmospheric Sciences 4/11/21 0200 67.8 72 58.5 1.6 NNE | 33 3.6 0.00 0 67.8 29.99 0.00 67.6 70.0 4.8
UH Manoa Atmospheric Sciences 4/11/21 0145 67.8 71 58.1 1.3 NNE | 32 4.8 0.00 0 67.8 29.99 0.00 67.6 70.0 4.8
UH Manoa Atmospheric Sciences 4/11/21 0130 67.7 71 57.8 2.1 NNE | 28 4.8 0.00 0 67.7 30.00 0.00 67.6 70.0 4.8
UH Manoa Atmospheric Sciences 4/11/21 0115 67.8 69 57.4 1.0 NE | 48 2.3 0.00 0 67.8 30.00 0.00 67.7 70.0 3.7
UH Manoa Atmospheric Sciences 4/11/21 0100 68.0 68 57.1 0.8 NE | 49 3.7 0.00 0 68.0 30.00 0.00 67.7 70.0 3.7
UH Manoa Atmospheric Sciences 4/11/21 0045 68.0 67 56.8 0.6 ENE | 59 2.5 0.00 0 68.0 30.01 0.00 67.7 70.0 2.6
UH Manoa Atmospheric Sciences 4/11/21 0030 68.6 65 56.4 0.8 NW | 314 2.6 0.00 0 68.6 30.01 0.00 68.2 70.0 2.6
UH Manoa Atmospheric Sciences 4/11/21 0015 69.5 62 55.7 0.9 E | 93 2.2 0.00 0 69.5 30.01 0.00 68.8 70.0 2.2
UH Manoa Atmospheric Sciences 4/11/21 0000 69.3 63 56.0 1.8 E | 86 4.5 0.00 0 69.3 30.02 0.00 67.3 77.6 20.0
UH Manoa Atmospheric Sciences 4/10/21 2345 70.0 62 56.3 1.6 NNE | 25 3.1 0.00 0 70.0 30.02 0.00 67.3 77.6 20.0
UH Manoa Atmospheric Sciences 4/10/21 2330 69.9 61 56.0 0.3 NW | 320 1.6 0.00 0 69.9 30.02 0.00 67.3 77.6 20.0
UH Manoa Atmospheric Sciences 4/10/21 2315 70.2 61 56.1 0.2 E | 98 2.9 0.00 0 70.2 30.02 0.00 67.3 77.6 20.0
UH Manoa Atmospheric Sciences 4/10/21 2300 70.6 60 56.3 2.0 ENE | 66 6.6 0.00 0 70.6 30.02 0.00 67.3 77.6 20.0
UH Manoa Atmospheric Sciences 4/10/21 2245 70.8 61 56.7 6.0 NE | 53 15.2 0.00 0 70.8 30.01 0.00 67.3 77.6 20.0
UH Manoa Atmospheric Sciences 4/10/21 2230 70.8 62 57.1 6.9 NE | 45 14.1 0.00 0 70.8 30.01 0.00 67.3 77.6 20.0
UH Manoa Atmospheric Sciences 4/10/21 2215 70.9 62 57.0 8.2 NE | 42 14.8 0.00 0 70.9 30.01 0.00 67.3 77.6 20.0
UH Manoa Atmospheric Sciences 4/10/21 2200 70.8 62 57.2 8.8 NE | 42 17.4 0.00 0 70.8 30.01 0.00 67.3 77.6 20.0
UH Manoa Atmospheric Sciences 4/10/21 2145 70.7 62 57.1 6.9 NE | 41 14.5 0.00 0 70.7 30.01 0.00 67.3 77.6 20.0
UH Manoa Atmospheric Sciences 4/10/21 2130 70.7 62 57.3 7.2 NE | 46 12.4 0.00 0 70.7 30.01 0.00 67.3 77.6 20.0
UH Manoa Atmospheric Sciences 4/10/21 2115 70.7 63 57.5 8.9 NE | 42 15.9 0.00 0 70.7 30.00 0.00 67.3 77.6 20.0
UH Manoa Atmospheric Sciences 4/10/21 2100 70.8 63 57.6 8.3 NE | 42 18.3 0.00 0 70.8 30.00 0.00 67.3 77.6 20.0
UH Manoa Atmospheric Sciences 4/10/21 2045 70.7 64 57.8 8.5 NE | 39 14.8 0.00 0 70.7 30.00 0.00 67.3 77.6 20.0
UH Manoa Atmospheric Sciences 4/10/21 2030 70.8 65 58.4 10.2 NE | 39 20.0 0.00 0 70.8 29.99 0.00 67.3 77.6 20.0
UH Manoa Atmospheric Sciences 4/10/21 2015 70.7 66 58.9 8.0 NE | 40 15.0 0.00 0 70.7 29.99 0.00 67.3 77.6 18.6
UH Manoa Atmospheric Sciences 4/10/21 2000 70.8 66 58.9 8.9 NE | 39 14.9 0.00 0 70.8 29.99 0.00 67.3 77.6 18.6
UH Manoa Atmospheric Sciences 4/10/21 1945 70.8 65 58.7 8.4 NE | 41 15.6 0.00 0 70.8 29.98 0.00 67.3 77.6 18.6
UH Manoa Atmospheric Sciences 4/10/21 1930 70.9 65 58.7 8.8 NE | 39 15.9 0.00 0 70.9 29.98 0.00 67.3 77.6 18.6
UH Manoa Atmospheric Sciences 4/10/21 1915 71.2 64 58.5 8.8 NE | 38 15.1 0.00 0 71.2 29.98 0.00 67.3 77.6 18.6
UH Manoa Atmospheric Sciences 4/10/21 1900 71.5 63 58.5 9.6 NE | 39 16.6 0.00 1 71.5 29.97 0.00 67.3 77.6 18.6
UH Manoa Atmospheric Sciences 4/10/21 1845 71.7 62 58.1 9.3 NE | 37 15.0 0.00 21 71.7 29.97 0.00 67.3 77.6 18.6
UH Manoa Atmospheric Sciences 4/10/21 1830 72.1 61 58.2 8.6 NE | 37 15.8 0.00 32 72.1 29.97 0.00 67.3 77.6 18.6
UH Manoa Atmospheric Sciences 4/10/21 1815 72.5 61 58.1 8.1 NE | 35 14.2 0.00 61 72.5 29.96 0.00 67.3 77.6 18.6
UH Manoa Atmospheric Sciences 4/10/21 1800 72.7 60 58.0 9.2 NE | 37 16.8 0.00 116 72.7 29.96 0.00 67.3 77.6 18.6
UH Manoa Atmospheric Sciences 4/10/21 1745 72.9 59 58.0 9.3 NNE | 32 16.9 0.00 100 72.9 29.96 0.00 67.3 77.6 18.6
UH Manoa Atmospheric Sciences 4/10/21 1730 73.0 60 58.2 8.0 NNE | 31 16.2 0.00 227 73.0 29.96 0.00 67.3 77.6 18.6
UH Manoa Atmospheric Sciences 4/10/21 1715 72.9 60 58.2 9.2 NNE | 31 17.9 0.00 195 72.9 29.96 0.00 67.3 77.6 18.6
UH Manoa Atmospheric Sciences 4/10/21 1700 73.3 59 58.0 8.0 NE | 34 15.5 0.00 206 73.3 29.96 0.00 67.3 77.6 18.6
UH Manoa Atmospheric Sciences 4/10/21 1645 73.7 58 58.0 6.4 NNE | 31 14.2 0.00 185 73.7 29.96 0.00 67.3 77.6 18.6
UH Manoa Atmospheric Sciences 4/10/21 1630 73.6 58 58.1 4.9 NNE | 26 13.1 0.00 185 73.6 29.96 0.00 67.3 77.6 18.6
UH Manoa Atmospheric Sciences 4/10/21 1615 73.4 57 57.5 6.2 NNE | 31 14.7 0.00 150 73.4 29.96 0.00 67.3 77.6 18.6
UH Manoa Atmospheric Sciences 4/10/21 1600 73.5 58 57.7 5.6 NNE | 28 12.3 0.00 100 73.5 29.97 0.00 67.3 77.6 18.6
UH Manoa Atmospheric Sciences 4/10/21 1545 73.7 58 58.0 4.5 NNE | 28 10.8 0.00 98 73.7 29.97 0.00 67.3 77.6 18.6
UH Manoa Atmospheric Sciences 4/10/21 1530 74.3 57 58.2 3.6 NNE | 22 12.3 0.00 75 74.3 29.97 0.00 67.3 77.6 18.6
UH Manoa Atmospheric Sciences 4/10/21 1515 74.9 57 58.8 3.6 N | 1 9.0 0.00 158 74.9 29.98 0.00 67.3 77.6 18.6
UH Manoa Atmospheric Sciences 4/10/21 1500 75.4 57 59.3 2.8 NW | 324 7.5 0.00 188 75.4 29.98 0.00 67.3 77.6 18.6
UH Manoa Atmospheric Sciences 4/10/21 1445 75.7 58 60.0 4.5 WNW | 292 11.0 0.00 215 75.7 29.98 0.00 67.3 77.6 18.6
UH Manoa Atmospheric Sciences 4/10/21 1430 76.0 58 60.2 3.0 NW | 310 11.4 0.00 182 76.0 29.99 0.00 67.3 77.6 18.6
UH Manoa Atmospheric Sciences 4/10/21 1415 76.2 56 59.4 2.8 NNE | 19 8.1 0.00 180 76.2 29.99 0.00 67.3 77.6 18.6
UH Manoa Atmospheric Sciences 4/10/21 1400 76.1 56 59.4 6.8 NNE | 31 17.1 0.00 216 76.1 29.99 0.00 67.3 77.6 18.6
UH Manoa Atmospheric Sciences 4/10/21 1345 76.4 56 59.5 8.2 NE | 42 15.6 0.00 562 76.4 29.99 0.00 67.3 77.6 18.6
UH Manoa Atmospheric Sciences 4/10/21 1330 76.4 55 59.0 9.4 NE | 34 17.3 0.00 813 76.4 30.00 0.00 67.3 77.6 18.6
UH Manoa Atmospheric Sciences 4/10/21 1315 76.6 55 59.3 9.9 NE | 37 16.2 0.00 1,046 76.6 30.01 0.00 67.3 77.6 18.6
UH Manoa Atmospheric Sciences 4/10/21 1300 76.3 54 58.7 10.0 NE | 35 17.1 0.00 811 76.3 30.01 0.00 67.3 77.6 18.6
UH Manoa Atmospheric Sciences 4/10/21 1245 76.9 53 58.6 6.4 NNE | 27 13.6 0.00 803 76.9 30.02 0.00 67.3 77.6 18.6
UH Manoa Atmospheric Sciences 4/10/21 1230 77.0 52 58.1 8.4 NE | 50 15.5 0.00 1,076 77.0 30.02 0.00 67.3 77.6 18.6
UH Manoa Atmospheric Sciences 4/10/21 1215 76.4 53 58.1 8.2 NE | 42 13.6 0.00 737 76.4 30.03 0.00 67.3 77.4 18.6
UH Manoa Atmospheric Sciences 4/10/21 1200 76.5 53 57.9 6.9 NE | 45 12.2 0.00 702 76.5 30.03 0.00 67.3 77.4 18.6
UH Manoa Atmospheric Sciences 4/10/21 1145 76.2 53 57.9 7.4 NE | 38 11.8 0.00 682 76.2 30.04 0.00 67.3 77.4 18.6
UH Manoa Atmospheric Sciences 4/10/21 1130 75.8 54 58.2 7.9 NE | 41 14.9 0.00 680 75.8 30.04 0.00 67.3 77.4 18.6
UH Manoa Atmospheric Sciences 4/10/21 1115 76.1 54 58.4 7.9 NNE | 31 14.5 0.00 861 76.1 30.05 0.00 67.3 77.4 18.6
UH Manoa Atmospheric Sciences 4/10/21 1100 76.7 53 58.4 8.0 NE | 38 16.6 0.00 856 76.7 30.05 0.00 67.3 77.4 18.6
UH Manoa Atmospheric Sciences 4/10/21 1045 76.1 53 57.8 7.4 NE | 38 12.8 0.00 906 76.1 30.05 0.00 67.3 76.6 18.6
UH Manoa Atmospheric Sciences 4/10/21 1030 75.7 54 57.7 7.0 NE | 42 13.1 0.00 871 75.7 30.05 0.00 67.3 76.6 18.6
UH Manoa Atmospheric Sciences 4/10/21 1015 75.1 55 57.9 8.4 NE | 39 15.0 0.00 790 75.1 30.06 0.00 67.3 75.7 18.6
UH Manoa Atmospheric Sciences 4/10/21 1000 74.8 56 58.0 7.6 NE | 37 15.5 0.00 781 74.8 30.06 0.00 67.3 75.4 18.6
UH Manoa Atmospheric Sciences 4/10/21 0945 74.0 57 57.9 9.8 NE | 38 17.2 0.00 723 74.0 30.06 0.00 67.3 74.5 18.6
UH Manoa Atmospheric Sciences 4/10/21 0930 73.6 58 58.2 8.3 NE | 41 13.1 0.00 666 73.6 30.06 0.00 67.3 74.2 18.6
UH Manoa Atmospheric Sciences 4/10/21 0915 73.0 61 58.8 10.0 NE | 41 18.6 0.00 612 73.0 30.06 0.00 67.3 73.3 18.6
UH Manoa Atmospheric Sciences 4/10/21 0900 72.6 63 59.2 8.9 NE | 38 16.0 0.00 546 72.6 30.06 0.00 67.3 73.0 17.1
UH Manoa Atmospheric Sciences 4/10/21 0845 72.2 63 59.0 9.5 NE | 39 17.1 0.00 476 72.2 30.06 0.00 67.3 72.4 17.1
UH Manoa Atmospheric Sciences 4/10/21 0830 71.5 64 58.8 8.1 NE | 38 16.5 0.00 406 71.5 30.06 0.00 67.3 72.0 16.5
UH Manoa Atmospheric Sciences 4/10/21 0815 70.9 66 59.0 8.2 NE | 35 15.5 0.00 211 70.9 30.06 0.00 67.3 71.1 15.9
UH Manoa Atmospheric Sciences 4/10/21 0800 70.6 67 59.4 7.3 NE | 38 15.9 0.00 229 70.6 30.05 0.00 67.3 71.0 15.9
UH Manoa Atmospheric Sciences 4/10/21 0745 70.0 69 59.5 4.8 NE | 43 9.7 0.00 192 70.0 30.05 0.00 67.3 70.9 12.6
Max     77.0 79 61.2 10.2 - 20.0 0.00 1,076 77.0 30.06 0.00 68.8 77.6 20.0
Avg     71.3 64 58.4 5.1 - 10.4 0.00 211 71.3 30.00 - - - -
Min     66.3 52 55.7 0.1 - 1.3 0.00 0 66.3 29.96 0.00 66.1 70.0 2.2